Time;durP1;ratioP1;P1;durP2;ratioP2;P2;SDS_P1;SDS_P2;PMS_P1;PMS_P2;Temp;Humidity;BMP_temperature;BMP_pressure;BME280_temperature;BME280_humidity;BME280_pressure;Samples;Min_cycle;Max_cycle;Signal;HPM_P1;HPM_P2
2021/05/27 00:02:19;;;;;;;24.95;13.13;;;;;;;14.98;59.58;101318.50;4988017;28;114060;-70
2021/05/27 00:04:47;;;;;;;19.05;12.85;;;;;;;14.98;59.65;101318.50;4990163;22;124381;-68
2021/05/27 00:07:14;;;;;;;18.52;11.45;;;;;;;15.01;59.54;101321.94;4968574;28;124033;-67
2021/05/27 00:09:41;;;;;;;17.17;12.10;;;;;;;14.99;59.53;101317.56;4968519;28;113021;-68
2021/05/27 00:12:09;;;;;;;20.20;11.93;;;;;;;14.99;59.78;101328.22;4968653;28;113786;-68
2021/05/27 00:14:36;;;;;;;21.05;11.40;;;;;;;14.99;59.66;101325.56;4963293;28;124862;-68
2021/05/27 00:17:03;;;;;;;21.42;12.50;;;;;;;14.99;59.59;101325.56;4946190;28;123886;-68
2021/05/27 00:19:30;;;;;;;20.95;12.32;;;;;;;14.99;59.64;101325.56;4946805;28;114428;-68
2021/05/27 00:21:57;;;;;;;20.10;12.88;;;;;;;14.98;59.84;101329.16;4948106;28;113333;-68
2021/05/27 00:24:24;;;;;;;20.92;13.00;;;;;;;14.97;59.80;101332.81;4950685;28;123162;-68
2021/05/27 00:26:51;;;;;;;19.00;12.57;;;;;;;14.97;59.78;101331.91;4946408;28;123876;-68
2021/05/27 00:29:18;;;;;;;22.70;13.98;;;;;;;14.96;59.81;101331.06;4951234;28;114653;-68
2021/05/27 00:31:45;;;;;;;24.35;13.07;;;;;;;14.96;59.73;101331.06;4951118;28;113843;-68
2021/05/27 00:34:12;;;;;;;19.85;13.07;;;;;;;14.95;59.98;101340.00;4962886;28;124077;-68
2021/05/27 00:36:40;;;;;;;28.17;13.15;;;;;;;14.96;59.72;101331.06;4948367;28;124607;-69
2021/05/27 00:39:07;;;;;;;24.10;12.38;;;;;;;14.96;59.85;101336.41;4947893;28;115136;-69
2021/05/27 00:41:34;;;;;;;25.38;13.02;;;;;;;14.96;59.81;101341.72;4951102;28;115287;-69
2021/05/27 00:44:01;;;;;;;29.08;14.15;;;;;;;14.96;59.64;101341.72;4944337;28;124276;-69
2021/05/27 00:46:28;;;;;;;27.42;13.98;;;;;;;14.93;59.43;101339.22;4949525;28;124271;-69
2021/05/27 00:49:01;;;;;;;27.38;14.40;;;;;;;14.88;59.44;101343.97;4949496;28;113299;-69
2021/05/27 00:51:29;;;;;;;29.00;15.05;;;;;;;14.84;59.44;101345.06;4960746;28;112979;-69
2021/05/27 00:53:56;;;;;;;28.25;15.50;;;;;;;14.82;59.46;101354.94;4940561;28;124202;-68
2021/05/27 00:56:25;;;;;;;30.25;15.45;;;;;;;14.80;59.54;101351.50;4950803;28;123220;-68
2021/05/27 00:58:53;;;;;;;30.05;16.08;;;;;;;14.81;59.48;101353.25;4953746;28;113189;-68
2021/05/27 01:01:21;;;;;;;27.35;16.30;;;;;;;14.81;59.34;101347.91;4947070;28;113775;-68
2021/05/27 01:03:48;;;;;;;29.42;16.42;;;;;;;14.80;59.22;101351.50;4934797;28;124110;-68
2021/05/27 01:06:15;;;;;;;26.88;16.90;;;;;;;14.80;59.04;101351.50;4954056;28;123323;-68
2021/05/27 01:08:42;;;;;;;29.80;17.17;;;;;;;14.78;59.09;101348.94;4951068;28;113159;-69
2021/05/27 01:11:09;;;;;;;31.17;17.42;;;;;;;14.79;59.07;101355.13;4931311;28;113457;-68
2021/05/27 01:13:36;;;;;;;29.33;18.38;;;;;;;14.77;58.81;101352.56;4933079;28;124162;-69
2021/05/27 01:16:10;;;;;;;31.15;18.70;;;;;;;14.78;58.82;101348.06;4932366;28;123540;-68
2021/05/27 01:18:39;;;;;;;31.60;18.63;;;;;;;14.77;58.90;101357.88;4936495;28;113708;-69
2021/05/27 01:21:06;;;;;;;31.40;17.88;;;;;;;14.78;58.86;101358.75;4948639;28;113299;-68
2021/05/27 01:23:34;;;;;;;30.17;18.20;;;;;;;14.79;58.73;101360.47;4951769;28;123057;-69
2021/05/27 01:26:04;;;;;;;27.60;17.65;;;;;;;14.79;58.80;101363.13;4937947;28;123834;-68
2021/05/27 01:28:33;;;;;;;28.60;17.88;;;;;;;14.80;58.75;101362.19;4949133;28;115258;-69
2021/05/27 01:31:03;;;;;;;25.75;18.30;;;;;;;14.78;58.88;101364.06;4950754;28;115441;-69
2021/05/27 01:33:33;;;;;;;27.15;18.00;;;;;;;14.76;58.59;101366.81;4937924;28;124768;-69
2021/05/27 01:36:03;;;;;;;30.25;18.02;;;;;;;14.76;58.52;101371.28;4953465;28;122986;-69
2021/05/27 01:38:32;;;;;;;26.45;17.80;;;;;;;14.75;58.70;101369.59;4933813;28;113201;-69
2021/05/27 01:41:02;;;;;;;29.88;17.50;;;;;;;14.74;58.73;101378.53;4951590;28;113213;-69
2021/05/27 01:43:31;;;;;;;32.90;17.30;;;;;;;14.72;58.51;101375.06;4950406;28;122913;-69
2021/05/27 01:45:59;;;;;;;28.20;17.48;;;;;;;14.72;58.80;101377.75;4950028;28;123998;-69
2021/05/27 01:48:26;;;;;;;28.40;16.65;;;;;;;14.70;58.77;101382.31;4949458;28;113988;-69
2021/05/27 01:50:53;;;;;;;30.00;15.88;;;;;;;14.69;58.73;101383.22;4951368;28;113442;-69
2021/05/27 01:53:25;;;;;;;26.85;15.77;;;;;;;14.67;58.81;101385.97;4949544;28;124441;-69
2021/05/27 01:55:53;;;;;;;30.02;14.57;;;;;;;14.63;58.87;101378.22;4951587;28;122471;-69
2021/05/27 01:58:22;;;;;;;27.80;13.07;;;;;;;14.58;58.62;101389.16;4934065;28;113279;-69
2021/05/27 02:00:50;;;;;;;27.75;14.35;;;;;;;14.54;58.86;101392.88;4952243;28;112872;-69
2021/05/27 02:03:23;;;;;;;27.90;13.55;;;;;;;14.50;58.82;101391.31;4939269;28;124087;-69
2021/05/27 02:05:59;;;;;;;28.17;13.07;;;;;;;14.46;58.86;101401.28;4942414;28;123365;-69
2021/05/27 02:08:27;;;;;;;32.33;14.02;;;;;;;14.43;59.02;101398.78;4953348;28;113197;-69
2021/05/27 02:10:59;;;;;;;26.27;13.60;;;;;;;14.40;58.92;101396.28;4949263;28;112913;-69
2021/05/27 02:13:26;;;;;;;30.65;13.75;;;;;;;14.40;58.90;101396.28;4949612;28;122385;-69
2021/05/27 02:15:57;;;;;;;27.45;12.73;;;;;;;14.40;58.92;101396.28;4936161;28;123120;-69
2021/05/27 02:18:24;;;;;;;25.27;12.70;;;;;;;14.39;58.93;101389.19;4941982;28;115759;-69
2021/05/27 02:20:51;;;;;;;26.75;11.40;;;;;;;14.37;58.75;101399.09;4938455;28;114090;-69
2021/05/27 02:23:18;;;;;;;18.00;10.90;;;;;;;14.35;58.72;101400.97;4954564;28;123444;-69
2021/05/27 02:25:45;;;;;;;24.52;10.90;;;;;;;14.32;58.67;101393.16;4937900;28;123081;-69
2021/05/27 02:28:24;;;;;;;19.00;10.07;;;;;;;14.33;58.74;101405.53;4948836;28;113371;-69
2021/05/27 02:30:52;;;;;;;25.00;10.13;;;;;;;14.32;58.46;101409.16;4951681;28;112266;-69
2021/05/27 02:33:19;;;;;;;23.80;10.10;;;;;;;14.30;58.33;101411.03;4949727;28;123415;-69
2021/05/27 02:35:46;;;;;;;20.10;9.05;;;;;;;14.26;58.24;101412.09;4938150;28;124114;-69
2021/05/27 02:38:13;;;;;;;19.70;8.05;;;;;;;14.25;58.13;101418.38;4949553;28;112300;-69
2021/05/27 02:40:44;;;;;;;18.25;8.30;;;;;;;14.23;58.04;101409.63;4934448;28;113990;-69
2021/05/27 02:43:13;;;;;;;15.07;7.70;;;;;;;14.20;57.97;101419.50;4948447;28;123169;-69
2021/05/27 02:45:43;;;;;;;15.30;7.55;;;;;;;14.18;58.01;101413.38;4956435;28;123047;-69
2021/05/27 02:48:10;;;;;;;18.13;7.70;;;;;;;14.16;58.08;101415.22;4937806;28;115002;-69
2021/05/27 02:50:42;;;;;;;17.98;8.40;;;;;;;14.13;58.12;101414.56;4950665;28;113255;-69
2021/05/27 02:53:11;;;;;;;18.10;8.18;;;;;;;14.12;58.06;101412.81;4950811;28;123857;-68
2021/05/27 02:55:39;;;;;;;19.55;8.82;;;;;;;14.09;58.12;101419.19;4948902;28;124311;-69
2021/05/27 02:58:06;;;;;;;20.23;7.88;;;;;;;14.08;58.17;101422.75;4934575;28;114555;-68
2021/05/27 03:00:36;;;;;;;19.23;7.75;;;;;;;14.08;58.27;101414.78;4948684;28;113913;-69
2021/05/27 03:03:16;;;;;;;17.17;7.95;;;;;;;14.08;58.16;101414.78;4951572;28;123110;-69
2021/05/27 03:05:44;;;;;;;17.00;8.27;;;;;;;14.08;58.39;101427.25;4936644;28;125071;-69
2021/05/27 03:08:11;;;;;;;19.58;7.78;;;;;;;14.08;58.31;101422.75;4931516;28;114930;-69
2021/05/27 03:10:39;;;;;;;22.48;8.25;;;;;;;14.08;58.07;101422.75;4946088;28;113254;-69
2021/05/27 03:13:07;;;;;;;18.33;8.55;;;;;;;14.08;58.24;101416.59;4950835;28;123060;-69
2021/05/27 03:15:37;;;;;;;18.02;8.68;;;;;;;14.06;58.36;101421.97;4949862;28;124384;-69
2021/05/27 03:18:06;;;;;;;18.48;8.13;;;;;;;14.05;58.33;101422.06;4937423;28;114507;-69
2021/05/27 03:20:35;;;;;;;21.48;9.23;;;;;;;14.04;58.39;101425.66;4954281;28;112760;-69
2021/05/27 03:23:05;;;;;;;21.58;9.75;;;;;;;14.02;58.44;101428.41;4937442;28;122189;-69
2021/05/27 03:25:36;;;;;;;21.02;8.55;;;;;;;14.00;58.64;101424.97;4947589;28;123534;-69
2021/05/27 03:28:04;;;;;;;21.90;9.27;;;;;;;14.00;58.57;101430.28;4947916;28;112384;-69
2021/05/27 03:30:32;;;;;;;26.55;9.80;;;;;;;13.98;58.66;101432.16;4938196;28;114247;-70
2021/05/27 03:33:00;;;;;;;25.75;9.88;;;;;;;13.98;58.66;101432.16;4934330;28;124930;-69
2021/05/27 03:35:27;;;;;;;21.55;9.77;;;;;;;13.95;58.81;101438.50;4949149;28;123353;-69
2021/05/27 03:37:55;;;;;;;20.40;10.25;;;;;;;13.94;58.91;101435.94;4949575;28;112734;-69
2021/05/27 03:40:24;;;;;;;25.45;10.23;;;;;;;13.94;58.80;101430.59;4933549;28;114328;-69
2021/05/27 03:42:55;;;;;;;27.38;10.23;;;;;;;13.91;58.89;101430.75;4948166;28;125364;-69
2021/05/27 03:45:24;;;;;;;23.95;10.43;;;;;;;13.90;59.02;101423.69;4934223;28;124583;-69
2021/05/27 03:48:20;;;;;;;20.95;10.25;;;;;;;13.89;59.16;101443.28;4938372;28;113968;-69
2021/05/27 03:50:48;;;;;;;23.58;10.95;;;;;;;13.86;59.22;101438.09;4932413;28;113964;-70
2021/05/27 03:53:18;;;;;;;21.52;10.48;;;;;;;13.81;59.29;101441.84;4932363;28;124792;-69
2021/05/27 03:55:57;;;;;;;22.23;10.65;;;;;;;13.79;59.41;101438.41;4953733;28;123177;-69
2021/05/27 04:01:12;;;;;;;23.50;10.65;;;;;;;13.76;59.56;101443.84;4953339;28;114302;-70
2021/05/27 04:09:30;;;;;;;23.95;10.75;;;;;;;13.73;59.67;101454.69;4940321;28;114383;-69
2021/05/27 04:14:43;;;;;;;20.98;10.32;;;;;;;13.71;59.90;101453.91;4937533;28;124840;-69
2021/05/27 04:17:10;;;;;;;22.10;10.80;;;;;;;13.70;59.92;101454.81;4933215;28;123778;-69
2021/05/27 04:19:37;;;;;;;21.80;11.10;;;;;;;13.71;60.03;101455.66;4938077;28;113894;-70
2021/05/27 04:22:04;;;;;;;24.63;10.95;;;;;;;13.70;60.11;101460.13;4956334;28;114510;-69
2021/05/27 04:24:31;;;;;;;27.25;10.73;;;;;;;13.69;59.92;101458.41;4946093;28;124580;-69
2021/05/27 04:26:58;;;;;;;23.52;10.95;;;;;;;13.70;60.19;101460.13;4963768;28;124524;-69
2021/05/27 04:29:25;;;;;;;24.73;10.77;;;;;;;13.70;60.29;101460.13;4958956;28;114508;-69
2021/05/27 04:31:52;;;;;;;23.33;10.63;;;;;;;13.71;60.30;101455.66;4970188;28;114845;-69
2021/05/27 04:34:19;;;;;;;25.27;10.95;;;;;;;13.71;60.32;101461.88;4953630;28;126481;-69
2021/05/27 04:36:46;;;;;;;23.92;11.43;;;;;;;13.70;60.18;101462.81;4951606;28;123111;-69
2021/05/27 04:39:13;;;;;;;22.58;11.30;;;;;;;13.72;60.49;101468.06;4935225;28;113292;-69
2021/05/27 04:41:40;;;;;;;25.50;11.50;;;;;;;13.69;60.26;101458.41;4948101;28;113363;-69
2021/05/27 04:44:07;;;;;;;21.90;11.27;;;;;;;13.71;60.51;101467.19;4948365;28;124079;-69
2021/05/27 04:46:34;;;;;;;29.05;12.10;;;;;;;13.71;60.54;101461.00;4937548;28;124058;-69
2021/05/27 04:49:02;;;;;;;28.15;12.20;;;;;;;13.71;60.64;101463.66;4936656;28;114362;-69
2021/05/27 04:51:29;;;;;;;26.63;11.73;;;;;;;13.70;60.51;101459.28;4942693;28;114791;-69
2021/05/27 04:53:56;;;;;;;23.30;11.27;;;;;;;13.71;60.69;101466.31;4936434;28;124346;-69
2021/05/27 04:56:23;;;;;;;26.70;11.50;;;;;;;13.71;60.67;101466.31;4933218;28;123742;-69
2021/05/27 04:58:50;;;;;;;29.38;11.38;;;;;;;13.71;61.00;101471.63;4936328;28;114607;-69
2021/05/27 05:01:17;;;;;;;22.95;12.00;;;;;;;13.70;60.83;101469.94;4935267;28;113880;-69
2021/05/27 05:03:44;;;;;;;26.17;11.85;;;;;;;13.70;60.84;101473.44;4937093;28;124373;-69
2021/05/27 05:06:11;;;;;;;24.10;11.15;;;;;;;13.70;60.91;101476.13;4959302;28;123968;-70
2021/05/27 05:08:39;;;;;;;24.70;11.65;;;;;;;13.69;60.84;101477.03;4940047;28;114047;-69
2021/05/27 05:11:06;;;;;;;25.02;11.18;;;;;;;13.69;60.96;101479.69;4949889;28;112918;-69
2021/05/27 05:13:33;;;;;;;26.73;12.23;;;;;;;13.70;61.13;101481.44;4937699;28;124170;-69
2021/05/27 05:16:00;;;;;;;28.42;11.55;;;;;;;13.69;61.14;101485.03;4951023;28;123949;-69
2021/05/27 05:18:27;;;;;;;27.73;11.38;;;;;;;13.70;61.22;101484.09;4950384;28;114904;-70
2021/05/27 05:20:54;;;;;;;19.92;11.73;;;;;;;13.71;61.20;101483.19;4940755;28;113914;-69
2021/05/27 05:23:21;;;;;;;31.40;12.80;;;;;;;13.71;61.23;101488.50;4941287;28;124490;-69
2021/05/27 05:25:48;;;;;;;26.70;13.02;;;;;;;13.73;61.21;101485.75;4952779;28;123178;-69
2021/05/27 05:28:15;;;;;;;24.67;13.52;;;;;;;13.73;61.15;101494.63;4941742;28;114262;-69
2021/05/27 05:30:43;;;;;;;29.77;13.38;;;;;;;13.73;61.38;101489.28;4942528;28;114164;-69
2021/05/27 05:33:10;;;;;;;28.95;14.20;;;;;;;13.73;61.43;101481.31;4937980;28;124824;-69
2021/05/27 05:35:37;;;;;;;36.22;14.60;;;;;;;13.73;61.43;101491.94;4937484;28;124120;-69
2021/05/27 05:38:05;;;;;;;31.95;15.55;;;;;;;13.76;61.51;101489.13;4939262;28;114866;-69
2021/05/27 05:40:33;;;;;;;34.33;15.43;;;;;;;13.77;61.53;101488.19;4953419;28;114169;-69
2021/05/27 05:43:01;;;;;;;30.75;16.10;;;;;;;13.80;61.46;101496.00;4935334;28;124847;-69
2021/05/27 05:45:28;;;;;;;33.65;16.17;;;;;;;13.82;61.48;101495.94;4935587;28;123392;-69
2021/05/27 05:47:58;;;;;;;27.95;16.08;;;;;;;13.82;61.57;101490.63;4955789;28;114172;-71
2021/05/27 05:53:14;;;;;;;37.03;16.08;;;;;;;13.83;61.61;101495.88;4952156;28;123050;-69
2021/05/27 05:55:42;;;;;;;38.08;16.65;;;;;;;13.86;61.59;101499.31;4948605;28;123557;-69
2021/05/27 05:58:09;;;;;;;31.50;15.77;;;;;;;13.86;61.64;101494.00;4935138;28;114428;-69
2021/05/27 06:00:36;;;;;;;30.77;14.98;;;;;;;13.87;61.63;101498.41;4934717;28;114817;-69
2021/05/27 06:03:04;;;;;;;31.90;14.40;;;;;;;13.89;61.68;101501.84;4934471;28;123133;-69
2021/05/27 06:05:52;;;;;;;27.63;13.35;;;;;;;13.90;61.57;101503.56;4945475;28;124079;-69
2021/05/27 06:08:38;;;;;;;30.30;13.93;;;;;;;13.92;61.67;101509.69;4948293;28;113418;-69
2021/05/27 06:11:06;;;;;;;30.17;14.55;;;;;;;13.92;61.69;101507.91;4938819;28;114519;-69
2021/05/27 06:13:33;;;;;;;34.03;15.10;;;;;;;13.95;61.87;101506.88;4940983;28;125642;-68
2021/05/27 06:16:00;;;;;;;33.58;15.57;;;;;;;13.96;61.67;101508.63;4935876;28;125161;-69
2021/05/27 06:18:27;;;;;;;27.17;14.77;;;;;;;13.97;61.68;101515.66;4934969;28;113907;-70
2021/05/27 06:21:29;;;;;;;29.02;15.57;;;;;;;13.98;61.61;101512.91;4937285;28;114294;-69
2021/05/27 06:23:59;;;;;;;31.58;14.63;;;;;;;13.98;61.57;101506.75;4955332;28;123202;-69
2021/05/27 06:26:27;;;;;;;29.73;14.18;;;;;;;13.97;61.65;101526.31;4938998;28;123934;-69
2021/05/27 06:28:54;;;;;;;31.90;14.48;;;;;;;13.96;61.77;101519.28;4939729;28;115924;-69
2021/05/27 06:31:21;;;;;;;25.10;13.15;;;;;;;13.95;61.68;101517.53;4954066;28;114213;-69
2021/05/27 06:33:49;;;;;;;28.88;13.48;;;;;;;13.94;61.73;101521.16;4935559;28;123888;-69
2021/05/27 06:36:17;;;;;;;33.50;13.88;;;;;;;13.94;61.80;101518.47;4937440;28;124094;-69
2021/05/27 06:38:44;;;;;;;27.63;13.40;;;;;;;13.93;61.68;101522.06;4937911;28;113646;-69
2021/05/27 06:41:11;;;;;;;27.20;13.27;;;;;;;13.92;61.89;101523.00;4935998;28;113828;-69
2021/05/27 06:43:38;;;;;;;26.10;12.45;;;;;;;13.92;61.89;101523.00;4949447;28;123373;-69
2021/05/27 06:46:05;;;;;;;29.73;11.85;;;;;;;13.93;61.95;101524.72;4933745;28;124038;-69
2021/05/27 06:48:32;;;;;;;30.15;12.73;;;;;;;13.92;61.95;101533.63;4955032;28;114522;-69
2021/05/27 06:50:59;;;;;;;23.80;11.70;;;;;;;13.93;61.75;101530.91;4953265;28;112837;-69
2021/05/27 06:53:26;;;;;;;23.98;11.30;;;;;;;13.93;61.92;101532.72;4956430;28;123714;-70
2021/05/27 06:55:54;;;;;;;22.30;11.48;;;;;;;13.92;62.02;101528.31;4954671;28;125136;-69
2021/05/27 06:58:21;;;;;;;24.10;10.93;;;;;;;13.94;61.93;101537.13;4939451;28;114524;-69
2021/05/27 07:00:48;;;;;;;26.88;11.05;;;;;;;13.93;62.11;101532.72;4941488;28;114453;-69
2021/05/27 07:03:18;;;;;;;21.23;10.48;;;;;;;13.95;61.99;101544.16;4949834;28;123114;-69
2021/05/27 07:05:45;;;;;;;21.95;9.52;;;;;;;13.93;62.09;101546.03;4946111;28;124431;-69
2021/05/27 07:08:12;;;;;;;26.63;10.77;;;;;;;13.92;62.18;101545.19;4934715;28;114605;-69
2021/05/27 07:10:41;;;;;;;23.38;10.48;;;;;;;13.94;62.10;101547.78;4951669;28;113295;-69
2021/05/27 07:13:08;;;;;;;26.08;11.52;;;;;;;13.96;62.13;101545.91;4945111;28;123800;-69
2021/05/27 07:15:36;;;;;;;25.58;11.18;;;;;;;13.98;62.08;101554.69;4943261;28;125739;-69
2021/05/27 07:18:04;;;;;;;23.98;11.38;;;;;;;13.98;62.12;101549.34;4950690;28;114988;-69
2021/05/27 07:20:32;;;;;;;30.23;12.23;;;;;;;14.01;62.19;101559.84;4950769;28;115101;-70
2021/05/27 07:22:59;;;;;;;26.83;12.55;;;;;;;14.03;62.28;101557.97;4934582;28;123879;-69
2021/05/27 07:25:27;;;;;;;34.63;12.27;;;;;;;14.06;62.33;101563.16;4932353;28;122902;-69
2021/05/27 07:27:56;;;;;;;25.58;13.10;;;;;;;14.08;62.32;101560.41;4935712;28;114799;-69
2021/05/27 07:30:26;;;;;;;23.10;13.07;;;;;;;14.09;62.39;101557.69;4954713;28;114716;-69
2021/05/27 07:32:57;;;;;;;26.08;13.27;;;;;;;14.11;62.40;101560.25;4929892;28;123205;-69
2021/05/27 07:35:26;;;;;;;23.83;12.23;;;;;;;14.11;62.17;101555.81;4945316;28;124240;-69
2021/05/27 07:37:55;;;;;;;23.92;11.57;;;;;;;14.10;62.17;101564.72;4948573;28;114063;-69
2021/05/27 07:40:23;;;;;;;20.02;10.95;;;;;;;14.10;62.15;101567.38;4934248;28;114146;-69
2021/05/27 07:42:50;;;;;;;20.15;10.45;;;;;;;14.09;62.07;101572.78;4934898;28;123775;-69
2021/05/27 07:45:17;;;;;;;20.63;11.32;;;;;;;14.08;62.22;101566.59;4934273;28;124066;-69
2021/05/27 07:47:45;;;;;;;26.15;11.90;;;;;;;14.08;62.31;101566.59;4932291;28;114480;-68
2021/05/27 07:50:13;;;;;;;25.48;10.35;;;;;;;14.09;62.28;101573.66;4935494;28;113946;-69
2021/05/27 07:52:40;;;;;;;25.50;10.80;;;;;;;14.10;62.24;101575.38;4934522;28;124046;-69
2021/05/27 07:55:09;;;;;;;22.02;10.02;;;;;;;14.10;62.41;101579.84;4936266;28;123901;-69
2021/05/27 07:57:36;;;;;;;19.95;9.57;;;;;;;14.11;62.43;101576.22;4935260;28;114292;-70
2021/05/27 08:00:05;;;;;;;19.67;9.43;;;;;;;14.11;62.48;101582.44;4936556;28;114032;-69
2021/05/27 08:02:38;;;;;;;23.33;9.07;;;;;;;14.13;62.52;101580.56;4934910;28;125418;-69
2021/05/27 08:05:06;;;;;;;17.73;8.32;;;;;;;14.15;62.26;101584.03;4950717;28;122885;-69
2021/05/27 08:07:33;;;;;;;20.00;8.05;;;;;;;14.15;62.48;101589.34;4935594;28;114162;-69
2021/05/27 08:10:02;;;;;;;20.38;7.90;;;;;;;14.15;62.39;101589.34;4942420;28;114585;-69
2021/05/27 08:12:29;;;;;;;20.77;7.53;;;;;;;14.17;62.42;101583.94;4941393;28;122989;-69
2021/05/27 08:14:57;;;;;;;17.75;7.32;;;;;;;14.18;62.59;101594.53;4946270;28;124697;-69
2021/05/27 08:17:25;;;;;;;18.15;6.82;;;;;;;14.21;62.38;101589.03;4940740;28;114283;-69
2021/05/27 08:19:52;;;;;;;15.23;6.68;;;;;;;14.23;62.28;101590.78;4948297;28;113984;-70
2021/05/27 08:22:19;;;;;;;22.15;7.45;;;;;;;14.21;62.34;101594.38;4946827;28;123256;-70
2021/05/27 08:24:46;;;;;;;19.40;8.05;;;;;;;14.21;62.26;101599.69;4958440;28;124264;-69
2021/05/27 08:27:13;;;;;;;18.75;7.75;;;;;;;14.23;62.48;101590.78;4951276;28;115307;-69
2021/05/27 08:29:40;;;;;;;20.00;7.93;;;;;;;14.25;62.54;101594.25;4966029;28;114034;-69
2021/05/27 08:32:08;;;;;;;20.80;7.70;;;;;;;14.26;62.41;101606.59;4929495;28;123629;-69
2021/05/27 08:34:36;;;;;;;17.77;7.22;;;;;;;14.26;62.38;101601.28;4956161;28;123326;-69
2021/05/27 08:37:03;;;;;;;15.80;7.15;;;;;;;14.27;62.47;101603.03;4940901;28;113967;-69
2021/05/27 08:39:31;;;;;;;26.58;7.47;;;;;;;14.27;62.26;101608.34;4946550;28;114324;-69
2021/05/27 08:41:59;;;;;;;14.93;6.65;;;;;;;14.27;62.30;101608.34;4950098;28;124774;-70
2021/05/27 08:44:27;;;;;;;17.35;7.55;;;;;;;14.28;62.44;101615.38;4947987;28;124798;-70
2021/05/27 08:46:54;;;;;;;17.75;7.07;;;;;;;14.30;62.26;101624.19;4950539;28;114134;-70
2021/05/27 08:49:21;;;;;;;14.52;6.80;;;;;;;14.29;62.16;101620.66;4937606;28;114270;-71
2021/05/27 08:51:50;;;;;;;19.60;7.35;;;;;;;14.28;62.21;101618.06;4935917;28;123264;-69
2021/05/27 08:54:18;;;;;;;18.25;7.15;;;;;;;14.28;62.35;101621.59;4962466;28;123009;-69
2021/05/27 08:56:45;;;;;;;18.40;7.30;;;;;;;14.29;62.26;101627.78;4949749;28;115626;-69
2021/05/27 08:59:12;;;;;;;21.35;8.20;;;;;;;14.30;62.20;101630.38;4965733;28;115172;-70
2021/05/27 09:02:05;;;;;;;16.10;7.60;;;;;;;14.30;62.27;101624.19;4946835;28;124758;-69
2021/05/27 09:04:33;;;;;;;14.88;7.22;;;;;;;14.34;62.37;101631.09;4953602;28;122884;-69
2021/05/27 09:07:01;;;;;;;20.00;7.55;;;;;;;14.35;62.40;101627.47;4949494;28;114178;-69
2021/05/27 09:09:55;;;;;;;19.02;7.88;;;;;;;14.38;62.50;101638.00;4931434;28;114934;-70
2021/05/27 09:12:32;;;;;;;22.02;7.70;;;;;;;14.41;62.63;101627.22;4938973;28;124650;-69
2021/05/27 09:15:04;;;;;;;23.95;7.90;;;;;;;14.45;62.66;101634.09;4947250;28;122706;-70
2021/05/27 09:17:45;;;;;;;21.10;7.55;;;;;;;14.48;62.65;101639.28;4934209;28;114957;-69
2021/05/27 09:20:15;;;;;;;24.33;8.13;;;;;;;14.52;62.60;101640.88;4934015;28;114248;-69
2021/05/27 09:22:43;;;;;;;18.67;7.07;;;;;;;14.56;62.48;101631.78;4943926;28;123846;-68
2021/05/27 09:25:30;;;;;;;18.33;7.60;;;;;;;14.58;62.55;101645.94;4944083;28;122769;-69
2021/05/27 09:27:57;;;;;;;19.73;7.28;;;;;;;14.64;62.40;101641.25;4932847;28;116575;-69
2021/05/27 09:30:25;;;;;;;19.08;7.40;;;;;;;14.68;62.50;101648.16;4934621;28;113609;-69
2021/05/27 09:33:09;;;;;;;17.98;6.80;;;;;;;14.71;62.20;101651.53;4953983;28;123172;-69
2021/05/27 09:35:36;;;;;;;15.13;6.68;;;;;;;14.76;62.36;101653.94;4940552;28;124050;-70
2021/05/27 09:38:03;;;;;;;17.20;6.35;;;;;;;14.79;62.26;101659.16;4954966;28;113087;-69
2021/05/27 09:40:38;;;;;;;17.27;6.30;;;;;;;14.81;62.17;101657.25;4938409;28;113805;-69
2021/05/27 09:43:08;;;;;;;15.00;6.17;;;;;;;14.85;62.33;101653.50;4933007;28;123014;-69
2021/05/27 09:45:38;;;;;;;14.93;6.30;;;;;;;14.90;62.54;101661.25;4931766;28;124181;-70
2021/05/27 09:48:19;;;;;;;20.35;7.10;;;;;;;14.93;62.30;101672.63;4931904;28;117227;-68
2021/05/27 09:50:46;;;;;;;19.83;6.75;;;;;;;14.98;62.41;101675.94;4939214;28;115065;-69
2021/05/27 09:53:19;;;;;;;17.80;6.50;;;;;;;15.03;62.31;101665.06;4942452;28;123900;-68
2021/05/27 09:55:47;;;;;;;14.27;6.38;;;;;;;15.08;62.35;101665.66;4953233;28;123126;-68
2021/05/27 09:58:15;;;;;;;16.70;6.65;;;;;;;15.15;62.50;101671.56;4938327;28;114743;-68
2021/05/27 10:00:44;;;;;;;18.27;6.53;;;;;;;15.21;62.42;101671.25;4944806;28;113726;-68
2021/05/27 10:03:22;;;;;;;18.10;6.28;;;;;;;15.25;62.20;101677.28;4950176;28;123339;-69
2021/05/27 10:05:52;;;;;;;12.38;5.97;;;;;;;15.26;61.82;101674.56;4946472;28;123380;-68
2021/05/27 10:08:20;;;;;;;15.57;5.75;;;;;;;15.28;61.75;101677.16;4928833;28;113283;-67
2021/05/27 10:11:09;;;;;;;17.15;5.57;;;;;;;15.28;61.56;101683.34;4940829;28;113806;-67
2021/05/27 10:13:36;;;;;;;15.57;6.35;;;;;;;15.29;61.61;101684.19;4950537;28;123299;-68
2021/05/27 10:16:05;;;;;;;15.68;6.10;;;;;;;15.27;61.31;101681.59;4945283;28;124343;-68
2021/05/27 10:18:32;;;;;;;13.05;5.95;;;;;;;15.25;61.29;101683.50;4939831;28;114505;-68
2021/05/27 10:21:02;;;;;;;14.07;6.30;;;;;;;15.24;61.19;101689.78;4946729;28;114417;-68
2021/05/27 10:23:31;;;;;;;18.17;6.32;;;;;;;15.21;61.03;101687.25;4963042;28;124028;-68
2021/05/27 10:25:59;;;;;;;16.20;6.60;;;;;;;15.19;61.09;101689.16;4953371;28;123576;-69
2021/05/27 10:28:27;;;;;;;17.33;6.78;;;;;;;15.18;61.33;101698.06;4943285;28;114095;-68
2021/05/27 10:30:55;;;;;;;20.27;6.20;;;;;;;15.17;60.96;101693.69;4944905;28;112313;-67
2021/05/27 10:33:24;;;;;;;13.73;6.57;;;;;;;15.16;60.83;101699.97;4951400;28;123377;-67
2021/05/27 10:36:03;;;;;;;16.13;6.50;;;;;;;15.11;60.73;101697.53;4966990;28;123169;-68
2021/05/27 10:38:39;;;;;;;14.93;6.60;;;;;;;15.09;60.66;101698.56;4943559;28;115609;-67
2021/05/27 10:41:11;;;;;;;19.75;6.65;;;;;;;15.09;60.63;101703.91;4950610;28;114924;-67
2021/05/27 10:43:59;;;;;;;17.20;6.43;;;;;;;15.05;60.51;101702.31;4932009;28;124388;-68
2021/05/27 10:46:32;;;;;;;15.50;5.78;;;;;;;15.02;60.63;101713.16;4947051;28;124235;-68
2021/05/27 10:48:59;;;;;;;16.63;6.05;;;;;;;15.02;60.68;101707.81;4954465;28;114270;-68
2021/05/27 10:51:34;;;;;;;12.93;5.93;;;;;;;15.02;60.66;101705.16;4935685;28;114160;-68
2021/05/27 10:54:07;;;;;;;18.25;6.70;;;;;;;15.01;60.80;101716.75;4954888;28;124944;-68
2021/05/27 10:56:37;;;;;;;15.43;7.13;;;;;;;15.06;61.04;101709.38;4951808;28;123810;-68
2021/05/27 10:59:06;;;;;;;19.45;7.38;;;;;;;15.09;60.98;101711.91;4935011;28;114518;-72
2021/05/27 11:01:34;;;;;;;16.60;6.57;;;;;;;15.14;60.93;101717.84;4956370;28;111859;-67
2021/05/27 11:04:06;;;;;;;20.40;7.43;;;;;;;15.21;60.89;101718.44;4936576;28;124090;-67
2021/05/27 11:06:38;;;;;;;17.75;6.72;;;;;;;15.25;60.78;101718.19;4938068;28;124419;-67
2021/05/27 11:09:23;;;;;;;15.30;6.95;;;;;;;15.28;60.54;101722.53;4949666;28;114377;-67
2021/05/27 11:11:52;;;;;;;17.60;6.93;;;;;;;15.29;60.27;101727.75;4949798;28;113782;-68
2021/05/27 11:14:37;;;;;;;18.08;6.40;;;;;;;15.28;60.15;101718.03;4948849;28;124612;-68
2021/05/27 11:17:08;;;;;;;23.02;6.75;;;;;;;15.28;59.99;101718.03;4948083;28;123099;-68
2021/05/27 11:28:00;;;;;;;25.95;7.82;;;;;;;15.34;60.18;101731.06;4936214;28;123881;-68
2021/05/27 11:30:30;;;;;;;22.52;7.75;;;;;;;15.37;60.15;101730.91;4950434;28;114091;-68
2021/05/27 11:33:03;;;;;;;17.58;7.68;;;;;;;15.41;60.05;101736.06;4950341;28;114815;-68
2021/05/27 11:35:40;;;;;;;20.33;7.25;;;;;;;15.44;59.91;101741.28;4950675;28;124320;-69
2021/05/27 11:38:16;;;;;;;15.13;7.10;;;;;;;15.44;59.52;101736.78;4937028;28;123981;-68